SCX8160 KMSP-KMKE
Flight info
| Callsign | SCX8160 |
|---|---|
| Flight time | 0h 45m |
| Altitude | 29000 |
| Route | ZMBRO7 ODI DLL BAE |
| Aircraft | B739/M-SDE2E3FGHIRWXY/LB1 |
Departure
| Time | 2026-04-20 01:34 |
|---|---|
| Airport | Minneapolis–Saint Paul International Airport / Wold–Chamberlain Field (KMSP) |
Arrival
| Time | 2026-04-20 02:19 |
|---|---|
| Airport | General Mitchell International Airport (KMKE) |
| Time | Latitude | Longitude | Altitude | Speed | Heading |
|---|---|---|---|---|---|
| 2026-04-20 01:18 | 44.87381 | -93.23012 | 824 ft | 0 kts | 135° |
| 2026-04-20 01:26 | 44.87384 | -93.23018 | 824 ft | 2 kts | 135° |
| 2026-04-20 01:26 | 44.87396 | -93.23034 | 818 ft | 2 kts | 135° |
| 2026-04-20 01:26 | 44.87408 | -93.23051 | 822 ft | 2 kts | 134° |
| 2026-04-20 01:26 | 44.87419 | -93.23067 | 819 ft | 2 kts | 132° |
| 2026-04-20 01:27 | 44.87429 | -93.23085 | 824 ft | 2 kts | 126° |
| 2026-04-20 01:27 | 44.87436 | -93.23106 | 821 ft | 2 kts | 71° |
| 2026-04-20 01:27 | 44.87432 | -93.23116 | 824 ft | 0 kts | 47° |
| 2026-04-20 01:27 | 44.87432 | -93.23117 | 824 ft | 0 kts | 47° |
| 2026-04-20 01:28 | 44.87448 | -93.23099 | 821 ft | 12 kts | 38° |
| 2026-04-20 01:28 | 44.87522 | -93.23004 | 822 ft | 14 kts | 44° |
| 2026-04-20 01:28 | 44.87591 | -93.22907 | 824 ft | 14 kts | 45° |
| 2026-04-20 01:29 | 44.87661 | -93.22810 | 821 ft | 14 kts | 46° |
| 2026-04-20 01:29 | 44.87729 | -93.22711 | 824 ft | 15 kts | 45° |
| 2026-04-20 01:29 | 44.87810 | -93.22600 | 824 ft | 16 kts | 45° |
| 2026-04-20 01:29 | 44.87889 | -93.22488 | 824 ft | 16 kts | 46° |
| 2026-04-20 01:30 | 44.87964 | -93.22379 | 824 ft | 15 kts | 46° |
| 2026-04-20 01:30 | 44.88048 | -93.22256 | 824 ft | 18 kts | 47° |
| 2026-04-20 01:30 | 44.88076 | -93.22089 | 823 ft | 24 kts | 118° |
| 2026-04-20 01:30 | 44.87987 | -93.21888 | 824 ft | 24 kts | 120° |
| 2026-04-20 01:31 | 44.87905 | -93.21692 | 822 ft | 23 kts | 123° |
| 2026-04-20 01:31 | 44.87822 | -93.21506 | 822 ft | 22 kts | 121° |
| 2026-04-20 01:31 | 44.87729 | -93.21291 | 824 ft | 29 kts | 121° |
| 2026-04-20 01:31 | 44.87628 | -93.21054 | 821 ft | 27 kts | 120° |
| 2026-04-20 01:32 | 44.87531 | -93.20832 | 824 ft | 26 kts | 121° |
| 2026-04-20 01:32 | 44.87413 | -93.20657 | 821 ft | 24 kts | 143° |
| 2026-04-20 01:32 | 44.87312 | -93.20479 | 821 ft | 23 kts | 122° |
| 2026-04-20 01:32 | 44.87237 | -93.20287 | 824 ft | 22 kts | 97° |
| 2026-04-20 01:33 | 44.87344 | -93.20159 | 826 ft | 22 kts | 358° |
| 2026-04-20 01:33 | 44.87386 | -93.20199 | 825 ft | 0 kts | 302° |
| 2026-04-20 01:33 | 44.87405 | -93.20241 | 822 ft | 28 kts | 301° |
| 2026-04-20 01:33 | 44.87660 | -93.20831 | 822 ft | 110 kts | 301° |
| 2026-04-20 01:34 | 44.88177 | -93.22020 | 873 ft | 167 kts | 304° |
| 2026-04-20 01:34 | 44.88811 | -93.23413 | 1555 ft | 175 kts | 307° |
| 2026-04-20 01:34 | 44.89523 | -93.24832 | 2577 ft | 173 kts | 308° |
| 2026-04-20 01:34 | 44.90222 | -93.26161 | 3429 ft | 174 kts | 306° |
| 2026-04-20 01:35 | 44.90622 | -93.27891 | 3654 ft | 204 kts | 267° |
| 2026-04-20 01:35 | 44.89990 | -93.29792 | 3880 ft | 233 kts | 224° |
| 2026-04-20 01:35 | 44.88518 | -93.30835 | 4408 ft | 245 kts | 192° |
| 2026-04-20 01:35 | 44.86777 | -93.30730 | 4882 ft | 264 kts | 161° |
| 2026-04-20 01:36 | 44.85243 | -93.29276 | 5528 ft | 271 kts | 134° |
| 2026-04-20 01:36 | 44.83945 | -93.27310 | 6346 ft | 275 kts | 131° |
| 2026-04-20 01:36 | 44.82652 | -93.25290 | 7133 ft | 280 kts | 131° |
| 2026-04-20 01:36 | 44.81316 | -93.23228 | 7799 ft | 289 kts | 131° |
| 2026-04-20 01:37 | 44.79928 | -93.21127 | 8474 ft | 297 kts | 132° |
| 2026-04-20 01:37 | 44.78488 | -93.18984 | 9187 ft | 304 kts | 132° |
| 2026-04-20 01:37 | 44.77007 | -93.16808 | 9883 ft | 312 kts | 133° |
| 2026-04-20 01:37 | 44.75474 | -93.14578 | 10380 ft | 326 kts | 133° |
| 2026-04-20 01:38 | 44.73830 | -93.12200 | 10566 ft | 350 kts | 133° |
| 2026-04-20 01:38 | 44.72108 | -93.09722 | 10906 ft | 366 kts | 133° |
| 2026-04-20 01:38 | 44.70302 | -93.07134 | 11457 ft | 374 kts | 133° |
| 2026-04-20 01:38 | 44.68463 | -93.04505 | 12133 ft | 380 kts | 133° |
| 2026-04-20 01:39 | 44.66586 | -93.01827 | 12767 ft | 386 kts | 133° |
| 2026-04-20 01:39 | 44.64683 | -92.99113 | 13377 ft | 394 kts | 133° |
| 2026-04-20 01:39 | 44.62746 | -92.96353 | 13983 ft | 400 kts | 133° |
| 2026-04-20 01:39 | 44.60774 | -92.93548 | 14550 ft | 406 kts | 133° |
| 2026-04-20 01:40 | 44.58779 | -92.90713 | 15150 ft | 410 kts | 133° |
| 2026-04-20 01:40 | 44.56767 | -92.87855 | 15732 ft | 415 kts | 133° |
| 2026-04-20 01:40 | 44.54725 | -92.84958 | 16274 ft | 420 kts | 133° |
| 2026-04-20 01:40 | 44.52659 | -92.82030 | 16851 ft | 425 kts | 134° |
| 2026-04-20 01:41 | 44.50570 | -92.79072 | 17440 ft | 429 kts | 133° |
| 2026-04-20 01:41 | 44.48461 | -92.76089 | 18000 ft | 434 kts | 133° |
| 2026-04-20 01:41 | 44.46368 | -92.73020 | 18560 ft | 438 kts | 128° |
| 2026-04-20 01:41 | 44.44594 | -92.69547 | 19050 ft | 439 kts | 117° |
| 2026-04-20 01:42 | 44.43047 | -92.65859 | 19634 ft | 441 kts | 116° |
| 2026-04-20 01:42 | 44.41510 | -92.62128 | 20154 ft | 444 kts | 116° |
| 2026-04-20 01:42 | 44.39945 | -92.58368 | 20660 ft | 449 kts | 116° |
| 2026-04-20 01:42 | 44.38349 | -92.54589 | 21135 ft | 453 kts | 117° |
| 2026-04-20 01:43 | 44.36725 | -92.50793 | 21625 ft | 457 kts | 117° |
| 2026-04-20 01:43 | 44.35100 | -92.47014 | 22121 ft | 461 kts | 117° |
| 2026-04-20 01:43 | 44.33437 | -92.43154 | 22621 ft | 464 kts | 117° |
| 2026-04-20 01:43 | 44.31766 | -92.39282 | 23119 ft | 468 kts | 117° |
| 2026-04-20 01:44 | 44.30078 | -92.35376 | 23598 ft | 471 kts | 117° |
| 2026-04-20 01:44 | 44.28377 | -92.31446 | 24047 ft | 475 kts | 117° |
| 2026-04-20 01:44 | 44.26660 | -92.27484 | 24496 ft | 478 kts | 116° |
| 2026-04-20 01:44 | 44.24930 | -92.23494 | 24872 ft | 482 kts | 116° |
| 2026-04-20 01:45 | 44.23187 | -92.19481 | 25295 ft | 485 kts | 116° |
| 2026-04-20 01:45 | 44.21434 | -92.15452 | 25727 ft | 487 kts | 116° |
| 2026-04-20 01:45 | 44.19673 | -92.11408 | 26123 ft | 489 kts | 117° |
| 2026-04-20 01:45 | 44.17901 | -92.07347 | 26519 ft | 492 kts | 117° |
| 2026-04-20 01:46 | 44.16117 | -92.03260 | 26914 ft | 495 kts | 117° |
| 2026-04-20 01:46 | 44.14326 | -91.99166 | 27345 ft | 496 kts | 117° |
| 2026-04-20 01:46 | 44.12533 | -91.95075 | 27891 ft | 494 kts | 117° |
| 2026-04-20 01:46 | 44.10742 | -91.90995 | 28476 ft | 492 kts | 116° |
| 2026-04-20 01:47 | 44.08959 | -91.86938 | 29080 ft | 490 kts | 116° |
| 2026-04-20 01:47 | 44.07181 | -91.82896 | 29316 ft | 493 kts | 116° |
| 2026-04-20 01:47 | 44.03612 | -91.74793 | 29286 ft | 492 kts | 116° |
| 2026-04-20 01:48 | 44.00046 | -91.66729 | 29289 ft | 488 kts | 116° |
| 2026-04-20 01:48 | 43.96486 | -91.58690 | 29302 ft | 489 kts | 117° |
| 2026-04-20 01:49 | 43.92907 | -91.50634 | 29345 ft | 491 kts | 116° |
| 2026-04-20 01:49 | 43.90098 | -91.42133 | 29278 ft | 478 kts | 98° |
| 2026-04-20 01:50 | 43.88341 | -91.33246 | 29272 ft | 478 kts | 97° |
| 2026-04-20 01:50 | 43.86597 | -91.24397 | 29266 ft | 480 kts | 97° |
| 2026-04-20 01:51 | 43.84787 | -91.15487 | 29268 ft | 481 kts | 98° |
| 2026-04-20 01:51 | 43.82940 | -91.06549 | 29279 ft | 483 kts | 98° |
| 2026-04-20 01:52 | 43.81080 | -90.97613 | 29268 ft | 483 kts | 98° |
| 2026-04-20 01:52 | 43.79217 | -90.88691 | 29266 ft | 482 kts | 98° |
| 2026-04-20 01:53 | 43.77351 | -90.79786 | 29276 ft | 481 kts | 98° |
| 2026-04-20 01:53 | 43.75491 | -90.70950 | 29282 ft | 482 kts | 98° |
| 2026-04-20 01:54 | 43.73608 | -90.62033 | 29272 ft | 483 kts | 98° |
| 2026-04-20 01:54 | 43.71719 | -90.53138 | 29274 ft | 482 kts | 98° |
| 2026-04-20 01:55 | 43.69823 | -90.44239 | 29265 ft | 483 kts | 98° |
| 2026-04-20 01:55 | 43.67918 | -90.35343 | 29308 ft | 484 kts | 98° |
| 2026-04-20 01:56 | 43.66324 | -90.27920 | 29269 ft | 485 kts | 98° |
| 2026-04-20 01:56 | 43.64425 | -90.19159 | 28861 ft | 470 kts | 98° |
| 2026-04-20 01:57 | 43.63496 | -90.14877 | 28486 ft | 463 kts | 98° |
| 2026-04-20 01:57 | 43.62576 | -90.10632 | 28028 ft | 459 kts | 98° |
| 2026-04-20 01:57 | 43.61666 | -90.06438 | 27604 ft | 454 kts | 98° |
| 2026-04-20 01:57 | 43.60763 | -90.02282 | 27152 ft | 451 kts | 98° |
| 2026-04-20 01:58 | 43.59862 | -89.98143 | 26763 ft | 448 kts | 98° |
| 2026-04-20 01:58 | 43.58968 | -89.94041 | 26298 ft | 446 kts | 98° |
| 2026-04-20 01:58 | 43.58075 | -89.89955 | 25846 ft | 444 kts | 98° |
| 2026-04-20 01:58 | 43.57187 | -89.85897 | 25412 ft | 442 kts | 98° |
| 2026-04-20 01:59 | 43.56299 | -89.81852 | 24981 ft | 440 kts | 98° |
| 2026-04-20 01:59 | 43.55412 | -89.77827 | 24554 ft | 438 kts | 97° |
| 2026-04-20 01:59 | 43.54447 | -89.73822 | 24033 ft | 443 kts | 102° |
| 2026-04-20 01:59 | 43.53363 | -89.69886 | 23462 ft | 446 kts | 103° |
| 2026-04-20 02:00 | 43.52210 | -89.65922 | 22942 ft | 444 kts | 105° |
| 2026-04-20 02:00 | 43.51049 | -89.62002 | 22556 ft | 440 kts | 105° |
| 2026-04-20 02:00 | 43.49901 | -89.58110 | 22136 ft | 437 kts | 104° |
| 2026-04-20 02:00 | 43.48765 | -89.54229 | 21695 ft | 434 kts | 104° |
| 2026-04-20 02:01 | 43.47649 | -89.50389 | 21292 ft | 430 kts | 105° |
| 2026-04-20 02:01 | 43.46544 | -89.46574 | 20874 ft | 427 kts | 105° |
| 2026-04-20 02:01 | 43.45452 | -89.42792 | 20474 ft | 424 kts | 105° |
| 2026-04-20 02:01 | 43.44366 | -89.39029 | 20062 ft | 421 kts | 105° |
| 2026-04-20 02:02 | 43.43286 | -89.35294 | 19652 ft | 418 kts | 105° |
| 2026-04-20 02:02 | 43.42213 | -89.31585 | 19215 ft | 416 kts | 105° |
| 2026-04-20 02:02 | 43.41144 | -89.27894 | 18822 ft | 414 kts | 105° |
| 2026-04-20 02:02 | 43.40093 | -89.24276 | 18419 ft | 412 kts | 106° |
| 2026-04-20 02:03 | 43.39032 | -89.20627 | 18001 ft | 409 kts | 107° |
| 2026-04-20 02:03 | 43.37979 | -89.17015 | 17542 ft | 406 kts | 107° |
| 2026-04-20 02:03 | 43.36935 | -89.13434 | 17132 ft | 402 kts | 107° |
| 2026-04-20 02:03 | 43.35898 | -89.09885 | 16741 ft | 397 kts | 107° |
| 2026-04-20 02:04 | 43.34874 | -89.06383 | 16338 ft | 394 kts | 108° |
| 2026-04-20 02:04 | 43.33854 | -89.02901 | 15796 ft | 394 kts | 108° |
| 2026-04-20 02:04 | 43.32833 | -88.99414 | 15344 ft | 392 kts | 108° |
| 2026-04-20 02:04 | 43.31820 | -88.95966 | 14934 ft | 388 kts | 108° |
| 2026-04-20 02:05 | 43.30811 | -88.92537 | 14520 ft | 384 kts | 109° |
| 2026-04-20 02:05 | 43.29814 | -88.89152 | 14143 ft | 380 kts | 109° |
| 2026-04-20 02:05 | 43.28827 | -88.85807 | 13745 ft | 376 kts | 109° |
| 2026-04-20 02:05 | 43.27851 | -88.82497 | 13352 ft | 371 kts | 110° |
| 2026-04-20 02:06 | 43.26900 | -88.79280 | 12992 ft | 366 kts | 110° |
| 2026-04-20 02:06 | 43.25936 | -88.76025 | 12608 ft | 360 kts | 110° |
| 2026-04-20 02:06 | 43.25011 | -88.72906 | 12255 ft | 355 kts | 110° |
| 2026-04-20 02:06 | 43.24087 | -88.69792 | 11900 ft | 350 kts | 111° |
| 2026-04-20 02:07 | 43.23173 | -88.66716 | 11546 ft | 346 kts | 111° |
| 2026-04-20 02:07 | 43.22271 | -88.63682 | 11199 ft | 341 kts | 111° |
| 2026-04-20 02:07 | 43.21377 | -88.60682 | 10850 ft | 337 kts | 111° |
| 2026-04-20 02:07 | 43.20497 | -88.57729 | 10521 ft | 333 kts | 111° |
| 2026-04-20 02:08 | 43.19627 | -88.54814 | 10226 ft | 327 kts | 112° |
| 2026-04-20 02:08 | 43.18781 | -88.51981 | 10108 ft | 316 kts | 112° |
| 2026-04-20 02:08 | 43.17960 | -88.49241 | 9983 ft | 305 kts | 112° |
| 2026-04-20 02:08 | 43.17172 | -88.46609 | 9933 ft | 293 kts | 112° |
| 2026-04-20 02:09 | 43.16384 | -88.43982 | 9356 ft | 299 kts | 112° |
| 2026-04-20 02:09 | 43.15597 | -88.41356 | 9024 ft | 297 kts | 111° |
| 2026-04-20 02:09 | 43.14816 | -88.38752 | 8748 ft | 293 kts | 111° |
| 2026-04-20 02:09 | 43.14053 | -88.36215 | 8459 ft | 290 kts | 111° |
| 2026-04-20 02:10 | 43.13287 | -88.33670 | 8180 ft | 287 kts | 111° |
| 2026-04-20 02:10 | 43.12530 | -88.31163 | 7902 ft | 284 kts | 112° |
| 2026-04-20 02:10 | 43.11458 | -88.28933 | 7605 ft | 281 kts | 141° |
| 2026-04-20 02:10 | 43.09828 | -88.27645 | 7544 ft | 262 kts | 161° |
| 2026-04-20 02:11 | 43.08147 | -88.26922 | 7445 ft | 245 kts | 167° |
| 2026-04-20 02:11 | 43.06549 | -88.26350 | 7337 ft | 229 kts | 168° |
| 2026-04-20 02:11 | 43.05044 | -88.25821 | 7014 ft | 224 kts | 168° |
| 2026-04-20 02:11 | 43.03545 | -88.25289 | 6681 ft | 218 kts | 167° |
| 2026-04-20 02:12 | 43.02094 | -88.24766 | 6372 ft | 211 kts | 167° |
| 2026-04-20 02:12 | 43.00725 | -88.24266 | 6103 ft | 202 kts | 167° |
| 2026-04-20 02:12 | 42.99402 | -88.23779 | 5893 ft | 190 kts | 167° |
| 2026-04-20 02:12 | 42.98150 | -88.23317 | 5671 ft | 193 kts | 167° |
| 2026-04-20 02:13 | 42.96737 | -88.22798 | 5590 ft | 227 kts | 167° |
| 2026-04-20 02:13 | 42.95175 | -88.22218 | 5384 ft | 228 kts | 166° |
| 2026-04-20 02:13 | 42.93686 | -88.21660 | 5261 ft | 215 kts | 166° |
| 2026-04-20 02:13 | 42.92293 | -88.21139 | 5074 ft | 202 kts | 167° |
| 2026-04-20 02:14 | 42.90952 | -88.20639 | 4807 ft | 194 kts | 167° |
| 2026-04-20 02:14 | 42.89657 | -88.20129 | 4709 ft | 197 kts | 159° |
| 2026-04-20 02:14 | 42.88585 | -88.18979 | 4605 ft | 199 kts | 123° |
| 2026-04-20 02:14 | 42.88058 | -88.17264 | 4462 ft | 196 kts | 89° |
| 2026-04-20 02:15 | 42.88264 | -88.15507 | 4432 ft | 191 kts | 71° |
| 2026-04-20 02:15 | 42.88609 | -88.13779 | 4182 ft | 183 kts | 67° |
| 2026-04-20 02:15 | 42.88985 | -88.12143 | 3784 ft | 182 kts | 67° |
| 2026-04-20 02:15 | 42.89368 | -88.10469 | 3259 ft | 186 kts | 66° |
| 2026-04-20 02:16 | 42.89731 | -88.08824 | 2979 ft | 178 kts | 70° |
| 2026-04-20 02:16 | 42.90076 | -88.07268 | 2789 ft | 164 kts | 68° |
| 2026-04-20 02:16 | 42.90445 | -88.05829 | 2646 ft | 157 kts | 64° |
| 2026-04-20 02:16 | 42.90813 | -88.04438 | 2431 ft | 155 kts | 64° |
| 2026-04-20 02:17 | 42.91209 | -88.03085 | 2357 ft | 154 kts | 61° |
| 2026-04-20 02:17 | 42.91544 | -88.01689 | 2352 ft | 157 kts | 67° |
| 2026-04-20 02:17 | 42.91872 | -88.00265 | 2327 ft | 158 kts | 64° |
| 2026-04-20 02:17 | 42.92223 | -87.98825 | 2186 ft | 164 kts | 66° |
| 2026-04-20 02:18 | 42.92537 | -87.97360 | 1885 ft | 156 kts | 70° |
| 2026-04-20 02:18 | 42.92865 | -87.95988 | 1532 ft | 150 kts | 68° |
| 2026-04-20 02:18 | 42.93207 | -87.94663 | 1265 ft | 147 kts | 70° |
| 2026-04-20 02:18 | 42.93525 | -87.93362 | 1007 ft | 142 kts | 69° |
| 2026-04-20 02:19 | 42.93833 | -87.92092 | 785 ft | 140 kts | 68° |
| 2026-04-20 02:19 | 42.94129 | -87.90875 | 682 ft | 122 kts | 72° |
| 2026-04-20 02:19 | 42.94348 | -87.89965 | 681 ft | 79 kts | 71° |
| 2026-04-20 02:19 | 42.94479 | -87.89434 | 684 ft | 46 kts | 71° |
| 2026-04-20 02:20 | 42.94573 | -87.89045 | 687 ft | 40 kts | 74° |
| 2026-04-20 02:20 | 42.94696 | -87.88883 | 684 ft | 13 kts | 348° |
| 2026-04-20 02:20 | 42.94701 | -87.88884 | 684 ft | 0 kts | 348° |